createdAt,value
2018-02-20T00:00:05.209Z,60.40
2018-02-20T00:01:07.733Z,62.60
2018-02-20T00:02:10.219Z,57.60
2018-02-20T00:03:12.746Z,58.33
2018-02-20T00:04:16.015Z,59.80
2018-02-20T00:05:19.259Z,61.08
2018-02-20T00:06:21.793Z,62.67
2018-02-20T00:07:24.281Z,65.75
2018-02-20T00:08:27.552Z,65.18
2018-02-20T00:09:30.796Z,56.10
2018-02-20T00:10:34.032Z,66.15
2018-02-20T00:11:37.354Z,62.62
2018-02-20T00:12:40.611Z,64.82
2018-02-20T00:13:43.874Z,65.78
2018-02-20T00:14:46.414Z,74.30
2018-02-20T00:15:48.926Z,61.92
2018-02-20T00:16:51.477Z,63.00
2018-02-20T00:17:53.990Z,64.60
2018-02-20T00:18:56.509Z,67.37
2018-02-20T00:20:00.135Z,65.10
2018-02-20T00:21:02.629Z,65.25
2018-02-20T00:22:05.138Z,66.43
2018-02-20T00:23:07.621Z,74.05
2018-02-20T00:24:10.873Z,66.30
2018-02-20T00:25:13.352Z,70.95
2018-02-20T00:26:15.882Z,64.85
2018-02-20T00:27:18.377Z,61.90
2018-02-20T00:28:20.871Z,59.40
2018-02-20T00:29:23.441Z,66.15
2018-02-20T00:30:25.916Z,74.35
2018-02-20T00:31:29.142Z,70.87
2018-02-20T00:32:32.407Z,66.25
2018-02-20T00:33:35.639Z,65.40
2018-02-20T00:34:38.871Z,76.95
2018-02-20T00:35:42.202Z,67.10
2018-02-20T00:36:44.766Z,72.40
2018-02-20T00:37:48.038Z,67.45
2018-02-20T00:38:50.537Z,63.30
2018-02-20T00:39:53.014Z,67.93
2018-02-20T00:40:55.505Z,67.78
2018-02-20T00:41:57.974Z,72.22
2018-02-20T00:43:00.470Z,75.32
2018-02-20T00:44:02.969Z,77.25
2018-02-20T00:45:06.113Z,81.57
2018-02-20T00:46:08.609Z,74.85
2018-02-20T00:47:11.891Z,76.50
2018-02-20T00:48:14.368Z,75.93
2018-02-20T00:49:16.867Z,71.60
2018-02-20T00:50:19.343Z,70.20
2018-02-20T00:51:21.877Z,76.50
2018-02-20T00:52:24.363Z,70.25
2018-02-20T00:53:27.623Z,73.47
2018-02-20T00:54:30.852Z,73.43
2018-02-20T00:55:34.123Z,83.97
2018-02-20T00:56:37.020Z,75.72
2018-02-20T00:57:39.686Z,79.35
2018-02-20T00:58:42.434Z,77.45
2018-02-20T00:59:45.505Z,70.32
2018-02-20T01:00:48.027Z,79.05
2018-02-20T01:01:50.653Z,81.07
2018-02-20T01:02:53.200Z,74.65
2018-02-20T01:03:56.447Z,76.47
2018-02-20T01:04:59.711Z,76.47
2018-02-20T01:06:02.959Z,78.85
2018-02-20T01:07:05.466Z,75.43
2018-02-20T01:08:08.744Z,85.12
2018-02-20T01:09:11.866Z,69.78
2018-02-20T01:10:15.093Z,70.25
2018-02-20T01:11:18.324Z,82.75
2018-02-20T01:12:20.899Z,71.85
2018-02-20T01:13:24.211Z,72.10
2018-02-20T01:14:27.580Z,73.90
2018-02-20T01:15:30.052Z,77.62
2018-02-20T01:16:32.558Z,71.90
2018-02-20T01:17:35.052Z,75.78
2018-02-20T01:18:37.530Z,70.55
2018-02-20T01:19:40.034Z,74.87
2018-02-20T01:20:42.511Z,70.53
2018-02-20T01:21:45.807Z,76.00
2018-02-20T01:22:48.308Z,71.60
2018-02-20T01:23:50.865Z,71.95
2018-02-20T01:24:53.366Z,66.72
2018-02-20T01:25:55.841Z,70.05
2018-02-20T01:26:59.136Z,83.95
2018-02-20T01:28:01.666Z,69.35
2018-02-20T01:29:04.182Z,71.57
2018-02-20T01:30:06.672Z,72.35
2018-02-20T01:31:10.149Z,80.35
2018-02-20T01:32:12.632Z,70.97
2018-02-20T01:33:15.864Z,69.47
2018-02-20T01:34:18.431Z,69.95
2018-02-20T01:35:20.963Z,65.60
2018-02-20T01:36:23.501Z,68.28
2018-02-20T01:37:25.982Z,76.65
2018-02-20T01:38:29.238Z,73.93
2018-02-20T01:39:32.479Z,80.72
2018-02-20T01:40:35.286Z,74.05
2018-02-20T01:41:38.366Z,76.40
2018-02-20T01:42:42.192Z,71.22
2018-02-20T01:43:44.754Z,73.85
2018-02-20T01:44:47.267Z,71.35
2018-02-20T01:45:50.646Z,78.05
2018-02-20T01:46:55.198Z,73.18
2018-02-20T01:47:57.686Z,75.72
2018-02-20T01:49:00.962Z,79.50
2018-02-20T01:50:03.450Z,78.78
2018-02-20T01:51:08.836Z,74.18
2018-02-20T01:52:11.314Z,78.12
2018-02-20T01:53:13.804Z,79.47
2018-02-20T01:54:17.048Z,78.62
2018-02-20T01:55:20.337Z,83.20
2018-02-20T01:56:23.197Z,72.60
2018-02-20T01:57:27.350Z,77.30
2018-02-20T01:58:29.827Z,77.90
2018-02-20T01:59:32.418Z,81.35
2018-02-20T02:00:35.615Z,76.45
2018-02-20T02:01:38.203Z,78.28
2018-02-20T02:02:41.479Z,76.70
2018-02-20T02:03:43.990Z,79.37
2018-02-20T02:04:46.741Z,74.90
2018-02-20T02:05:49.259Z,75.03
2018-02-20T02:06:52.609Z,77.22
2018-02-20T02:07:55.103Z,74.37
2018-02-20T02:08:58.344Z,80.05
2018-02-20T02:10:01.680Z,74.82
2018-02-20T02:11:04.946Z,77.20
2018-02-20T02:12:08.371Z,75.78
2018-02-20T02:13:10.892Z,84.70
2018-02-20T02:14:13.374Z,75.30
2018-02-20T02:15:15.875Z,83.18
2018-02-20T02:16:18.372Z,83.78
2018-02-20T02:17:21.676Z,81.93
2018-02-20T02:18:24.185Z,75.45
2018-02-20T02:19:26.650Z,83.12
2018-02-20T02:20:29.905Z,86.10
2018-02-20T02:21:32.418Z,79.05
2018-02-20T02:22:34.937Z,82.82
2018-02-20T02:23:38.293Z,80.03
2018-02-20T02:24:41.614Z,82.57
2018-02-20T02:25:44.232Z,77.53
2018-02-20T02:26:46.747Z,75.20
2018-02-20T02:27:49.233Z,79.30
2018-02-20T02:28:52.473Z,75.72
2018-02-20T02:29:55.755Z,81.60
2018-02-20T02:30:58.246Z,77.70
2018-02-20T02:32:01.482Z,81.18
2018-02-20T02:33:04.820Z,82.53
2018-02-20T02:34:07.416Z,83.78
2018-02-20T02:35:10.059Z,78.03
2018-02-20T02:36:12.503Z,86.90
2018-02-20T02:37:15.808Z,76.00
2018-02-20T02:38:18.440Z,75.40
2018-02-20T02:39:20.946Z,76.45
2018-02-20T02:40:23.496Z,78.93
2018-02-20T02:41:26.092Z,88.03
2018-02-20T02:42:29.472Z,78.62
2018-02-20T02:43:32.826Z,78.95
2018-02-20T02:44:35.433Z,76.80
2018-02-20T02:45:37.918Z,79.60
2018-02-20T02:46:40.430Z,84.22
2018-02-20T02:47:44.052Z,75.05
2018-02-20T02:48:48.096Z,77.07
2018-02-20T02:49:50.806Z,81.53
2018-02-20T02:50:53.348Z,74.45
2018-02-20T02:51:55.840Z,82.65
2018-02-20T02:52:59.033Z,84.53
2018-02-20T02:54:01.538Z,86.45
2018-02-20T02:55:04.075Z,83.57
2018-02-20T02:56:06.572Z,87.00
2018-02-20T02:57:09.100Z,82.45
2018-02-20T02:58:11.589Z,79.15
2018-02-20T02:59:14.863Z,82.30
2018-02-20T03:00:17.364Z,83.60
2018-02-20T03:01:20.596Z,84.22
2018-02-20T03:02:23.861Z,84.30
2018-02-20T03:03:26.368Z,93.53
2018-02-20T03:04:29.648Z,88.12
2018-02-20T03:05:32.140Z,77.35
2018-02-20T03:06:35.443Z,82.37
2018-02-20T03:07:38.039Z,81.82
2018-02-20T03:08:40.672Z,83.18
2018-02-20T03:09:43.142Z,88.62
2018-02-20T03:10:46.443Z,82.15
2018-02-20T03:11:49.010Z,89.53
2018-02-20T03:12:52.172Z,84.60
2018-02-20T03:13:54.837Z,81.28
2018-02-20T03:14:57.314Z,81.10
2018-02-20T03:15:59.874Z,90.65
2018-02-20T03:17:02.369Z,77.93
2018-02-20T03:18:04.950Z,83.12
2018-02-20T03:19:07.438Z,81.53
2018-02-20T03:20:11.527Z,85.65
2018-02-20T03:21:14.138Z,82.60
2018-02-20T03:22:16.637Z,87.72
2018-02-20T03:23:19.885Z,81.55
2018-02-20T03:24:22.423Z,76.75
2018-02-20T03:25:24.921Z,91.37
2018-02-20T03:26:28.301Z,82.68
2018-02-20T03:27:30.787Z,90.25
2018-02-20T03:28:33.351Z,84.47
2018-02-20T03:29:36.780Z,84.13
2018-02-20T03:30:40.069Z,84.50
2018-02-20T03:31:42.572Z,93.47
2018-02-20T03:32:45.124Z,90.45
2018-02-20T03:33:47.618Z,93.97
2018-02-20T03:34:50.123Z,85.97
2018-02-20T03:35:53.493Z,92.05
2018-02-20T03:36:56.288Z,87.28
2018-02-20T03:37:59.581Z,88.57
2018-02-20T03:39:02.102Z,88.68
2018-02-20T03:40:04.577Z,85.93
2018-02-20T03:41:08.628Z,86.47
2018-02-20T03:42:11.871Z,82.35
2018-02-20T03:43:14.374Z,88.32
2018-02-20T03:44:16.982Z,85.80
2018-02-20T03:45:19.447Z,83.97
2018-02-20T03:46:21.993Z,84.10
2018-02-20T03:47:26.000Z,92.75
2018-02-20T03:48:28.483Z,84.30
2018-02-20T03:49:30.942Z,79.97
2018-02-20T03:50:33.422Z,94.18
2018-02-20T03:51:35.968Z,92.37
2018-02-20T03:52:39.224Z,86.07
2018-02-20T03:53:42.499Z,88.05
2018-02-20T03:54:45.032Z,96.97
2018-02-20T03:55:48.363Z,88.53
2018-02-20T03:56:50.849Z,87.32
2018-02-20T03:57:54.089Z,89.13
2018-02-20T03:58:57.342Z,93.80
2018-02-20T03:59:59.849Z,86.10
2018-02-20T04:01:02.362Z,89.70
2018-02-20T04:02:04.961Z,87.20
2018-02-20T04:03:07.560Z,90.38
2018-02-20T04:04:10.094Z,88.47
2018-02-20T04:05:12.601Z,91.15
2018-02-20T04:06:15.933Z,79.72
2018-02-20T04:07:19.218Z,86.12
2018-02-20T04:08:21.709Z,89.75
2018-02-20T04:09:24.938Z,83.45
2018-02-20T04:10:28.262Z,98.07
2018-02-20T04:11:31.535Z,98.35
2018-02-20T04:12:34.902Z,87.60
2018-02-20T04:13:38.853Z,89.93
2018-02-20T04:14:41.933Z,93.45
2018-02-20T04:15:44.476Z,97.28
2018-02-20T04:16:48.525Z,95.35
2018-02-20T04:17:51.021Z,87.53
2018-02-20T04:18:53.565Z,93.30
2018-02-20T04:19:56.044Z,89.13
2018-02-20T04:20:59.316Z,94.47
2018-02-20T04:22:01.821Z,91.22
2018-02-20T04:23:04.300Z,93.80
2018-02-20T04:24:06.781Z,90.55
2018-02-20T04:25:09.361Z,90.95
2018-02-20T04:26:13.387Z,94.62
2018-02-20T04:27:15.911Z,91.32
2018-02-20T04:28:18.447Z,95.57
2018-02-20T04:29:20.927Z,91.10
2018-02-20T04:30:24.216Z,102.30
2018-02-20T04:31:26.760Z,85.85
2018-02-20T04:32:29.268Z,91.60
2018-02-20T04:33:31.732Z,92.80
2018-02-20T04:34:35.046Z,97.03
2018-02-20T04:35:37.651Z,93.95
2018-02-20T04:36:40.181Z,103.32
2018-02-20T04:37:44.058Z,85.85
2018-02-20T04:38:46.539Z,94.18
2018-02-20T04:39:49.024Z,93.22
2018-02-20T04:40:51.570Z,98.85
2018-02-20T04:41:54.915Z,92.72
2018-02-20T04:42:58.260Z,92.85
2018-02-20T04:44:02.334Z,104.45
2018-02-20T04:45:05.627Z,87.68
2018-02-20T04:46:08.196Z,90.62
2018-02-20T04:47:11.549Z,96.32
2018-02-20T04:48:14.854Z,99.03
2018-02-20T04:49:18.890Z,91.10
2018-02-20T04:50:21.411Z,94.62
2018-02-20T04:51:24.681Z,93.53
2018-02-20T04:52:27.452Z,95.38
2018-02-20T04:53:29.944Z,90.20
2018-02-20T04:54:33.320Z,97.70
2018-02-20T04:55:35.814Z,89.68
2018-02-20T04:56:38.319Z,101.62
2018-02-20T04:57:40.846Z,89.45
2018-02-20T04:58:43.321Z,92.75
2018-02-20T04:59:46.351Z,95.82
2018-02-20T05:00:48.842Z,97.50
2018-02-20T05:01:51.436Z,91.70
2018-02-20T05:02:54.450Z,89.35
2018-02-20T05:03:57.778Z,89.30
2018-02-20T05:05:01.061Z,96.10
2018-02-20T05:06:03.570Z,94.95
2018-02-20T05:07:06.042Z,98.28
2018-02-20T05:08:08.590Z,94.90
2018-02-20T05:09:11.139Z,92.62
2018-02-20T05:10:14.459Z,107.00
2018-02-20T05:11:17.054Z,90.90
2018-02-20T05:12:19.554Z,98.30
2018-02-20T05:13:22.052Z,90.20
2018-02-20T05:14:25.374Z,104.35
2018-02-20T05:15:27.898Z,91.57
2018-02-20T05:16:31.971Z,96.60
2018-02-20T05:17:34.455Z,95.60
2018-02-20T05:18:36.960Z,96.43
2018-02-20T05:19:39.907Z,89.35
2018-02-20T05:20:42.412Z,99.18
2018-02-20T05:21:45.678Z,99.57
2018-02-20T05:22:48.180Z,92.95
2018-02-20T05:23:51.243Z,91.15
2018-02-20T05:24:53.723Z,101.18
2018-02-20T05:25:56.988Z,100.18
2018-02-20T05:26:59.686Z,96.43
2018-02-20T05:28:02.969Z,97.25
2018-02-20T05:29:06.006Z,90.32
2018-02-20T05:30:08.539Z,98.00
2018-02-20T05:31:11.076Z,92.22
2018-02-20T05:32:13.793Z,90.80
2018-02-20T05:33:16.296Z,97.12
2018-02-20T05:34:19.667Z,100.03
2018-02-20T05:35:22.243Z,101.70
2018-02-20T05:36:25.495Z,94.90
2018-02-20T05:37:28.772Z,93.18
2018-02-20T05:38:32.960Z,98.15
2018-02-20T05:39:35.537Z,98.12
2018-02-20T05:40:38.124Z,100.00
2018-02-20T05:41:40.638Z,95.00
2018-02-20T05:42:43.103Z,93.80
2018-02-20T05:43:46.389Z,96.40
2018-02-20T05:44:49.586Z,98.50
2018-02-20T05:45:52.080Z,104.93
2018-02-20T05:46:54.630Z,91.82
2018-02-20T05:47:58.962Z,99.22
2018-02-20T05:49:01.483Z,96.40
2018-02-20T05:50:03.955Z,95.47
2018-02-20T05:51:06.525Z,104.32
2018-02-20T05:52:09.003Z,97.95
2018-02-20T05:53:11.534Z,94.82
2018-02-20T05:54:14.099Z,101.20
2018-02-20T05:55:16.568Z,95.90
2018-02-20T05:56:19.054Z,101.72
2018-02-20T05:57:21.554Z,99.80
2018-02-20T05:58:24.803Z,106.75
2018-02-20T05:59:27.288Z,94.00
2018-02-20T06:00:31.321Z,105.20
2018-02-20T06:01:33.940Z,99.80
2018-02-20T06:02:36.427Z,91.10
2018-02-20T06:03:39.690Z,100.78
2018-02-20T06:04:42.215Z,97.30
2018-02-20T06:05:44.748Z,110.95
2018-02-20T06:06:47.321Z,96.65
2018-02-20T06:07:50.343Z,95.38
2018-02-20T06:08:52.931Z,99.10
2018-02-20T06:09:55.418Z,95.03
2018-02-20T06:10:57.931Z,99.75
2018-02-20T06:12:00.476Z,107.07
2018-02-20T06:13:03.777Z,95.57
2018-02-20T06:14:06.296Z,102.80
2018-02-20T06:15:08.799Z,107.57
2018-02-20T06:16:11.331Z,106.18
2018-02-20T06:17:13.963Z,96.32
2018-02-20T06:18:16.469Z,106.32
2018-02-20T06:19:19.918Z,99.97
2018-02-20T06:20:22.476Z,100.53
2018-02-20T06:21:25.739Z,100.55
2018-02-20T06:22:28.228Z,98.50
2018-02-20T06:23:30.753Z,100.35
2018-02-20T06:24:33.238Z,99.00
2018-02-20T06:25:35.869Z,107.75
2018-02-20T06:26:38.424Z,101.25
2018-02-20T06:27:40.958Z,98.55
2018-02-20T06:28:43.542Z,101.20
2018-02-20T06:29:46.839Z,99.13
2018-02-20T06:30:49.404Z,99.50
2018-02-20T06:31:51.982Z,98.47
2018-02-20T06:32:54.463Z,100.93
2018-02-20T06:33:58.466Z,90.35
2018-02-20T06:35:00.998Z,97.32
2018-02-20T06:36:03.471Z,99.85
2018-02-20T06:37:06.055Z,94.22
2018-02-20T06:38:08.577Z,100.40
2018-02-20T06:39:11.098Z,98.90
2018-02-20T06:40:13.558Z,99.25
2018-02-20T06:41:16.111Z,97.75
2018-02-20T06:42:20.376Z,93.57
2018-02-20T06:43:23.131Z,94.85
2018-02-20T06:44:26.391Z,96.35
2018-02-20T06:45:28.862Z,94.15
2018-02-20T06:46:31.368Z,90.72
2018-02-20T06:47:33.840Z,91.37
2018-02-20T06:48:37.086Z,106.80
2018-02-20T06:49:40.375Z,103.00
2018-02-20T06:50:42.871Z,100.15
2018-02-20T06:51:46.124Z,108.40
2018-02-20T06:52:48.636Z,96.80
2018-02-20T06:53:51.124Z,103.53
2018-02-20T06:54:54.355Z,99.50
2018-02-20T06:55:56.847Z,89.78
2018-02-20T06:56:59.362Z,98.03
2018-02-20T06:58:01.850Z,89.15
2018-02-20T06:59:04.423Z,93.40
2018-02-20T07:00:06.910Z,98.37
2018-02-20T07:01:11.030Z,98.40
2018-02-20T07:02:13.546Z,98.78
2018-02-20T07:03:16.062Z,96.75
2018-02-20T07:04:18.579Z,97.28
2018-02-20T07:05:21.178Z,97.03
2018-02-20T07:06:24.329Z,101.75
2018-02-20T07:07:27.841Z,95.38
2018-02-20T07:08:30.307Z,98.32
2018-02-20T07:09:32.857Z,96.78
2018-02-20T07:10:35.338Z,103.12
2018-02-20T07:11:37.891Z,96.87
2018-02-20T07:12:40.346Z,93.53
2018-02-20T07:13:42.833Z,87.20
2018-02-20T07:14:45.403Z,96.60
2018-02-20T07:15:47.892Z,93.53
2018-02-20T07:16:51.033Z,102.32
2018-02-20T07:17:53.535Z,92.25
2018-02-20T07:18:56.013Z,86.28
2018-02-20T07:19:58.507Z,94.60
2018-02-20T07:21:01.012Z,101.45
2018-02-20T07:22:04.285Z,97.45
2018-02-20T07:23:06.765Z,101.07
2018-02-20T07:24:10.025Z,95.03
2018-02-20T07:25:13.281Z,96.47
2018-02-20T07:26:16.514Z,95.57
2018-02-20T07:27:20.484Z,97.25
2018-02-20T07:28:23.727Z,92.00
2018-02-20T07:29:26.250Z,89.95
2018-02-20T07:30:29.502Z,88.00
2018-02-20T07:31:32.042Z,94.25
2018-02-20T07:32:34.730Z,92.93
2018-02-20T07:33:37.518Z,94.72
2018-02-20T07:34:40.905Z,93.62
2018-02-20T07:35:44.618Z,96.75
2018-02-20T07:36:47.127Z,100.05
2018-02-20T07:37:50.135Z,96.68
2018-02-20T07:38:53.423Z,92.78
2018-02-20T07:39:56.057Z,92.65
2018-02-20T07:40:58.536Z,90.65
2018-02-20T07:42:01.814Z,95.25
2018-02-20T07:43:04.280Z,91.68
2018-02-20T07:44:07.476Z,91.65
2018-02-20T07:45:10.005Z,97.07
2018-02-20T07:46:12.820Z,97.22
2018-02-20T07:47:15.818Z,103.85
2018-02-20T07:48:19.287Z,87.65
2018-02-20T07:49:22.127Z,89.70
2018-02-20T07:50:24.694Z,93.70
2018-02-20T07:51:28.044Z,93.22
2018-02-20T07:52:31.270Z,93.05
2018-02-20T07:53:33.918Z,89.10
2018-02-20T07:54:36.452Z,89.55
2018-02-20T07:55:39.426Z,88.95
2018-02-20T07:56:41.956Z,93.47
2018-02-20T07:57:44.498Z,96.65
2018-02-20T07:58:47.052Z,94.18
2018-02-20T07:59:49.549Z,82.82
2018-02-20T08:00:52.180Z,88.15
2018-02-20T08:01:55.454Z,94.13
2018-02-20T08:02:58.958Z,83.47
2018-02-20T08:04:01.590Z,105.57
2018-02-20T08:05:04.256Z,90.18
2018-02-20T08:06:06.780Z,91.18
2018-02-20T08:07:10.254Z,87.45
2018-02-20T08:08:14.325Z,89.25
2018-02-20T08:09:16.848Z,90.22
2018-02-20T08:10:20.134Z,91.18
2018-02-20T08:11:22.759Z,84.10
2018-02-20T08:12:25.298Z,89.90
2018-02-20T08:13:27.823Z,93.68
2018-02-20T08:14:30.363Z,92.43
2018-02-20T08:15:32.981Z,84.75
2018-02-20T08:16:36.280Z,90.28
2018-02-20T08:17:39.533Z,90.75
2018-02-20T08:18:42.161Z,82.12
2018-02-20T08:19:44.753Z,85.65
2018-02-20T08:20:48.789Z,84.15
2018-02-20T08:21:51.335Z,94.87
2018-02-20T08:22:53.815Z,86.50
2018-02-20T08:23:56.393Z,83.22
2018-02-20T08:24:59.045Z,81.15
2018-02-20T08:26:01.608Z,84.85
2018-02-20T08:27:04.088Z,88.50
2018-02-20T08:28:06.789Z,82.85
2018-02-20T08:29:09.283Z,94.80
2018-02-20T08:30:12.035Z,88.97
2018-02-20T08:31:14.592Z,84.43
2018-02-20T08:32:17.922Z,95.95
2018-02-20T08:33:20.392Z,85.45
2018-02-20T08:34:23.017Z,86.53
2018-02-20T08:35:25.541Z,92.97
2018-02-20T08:36:28.038Z,82.53
2018-02-20T08:37:31.452Z,92.65
2018-02-20T08:38:33.931Z,87.50
2018-02-20T08:39:37.160Z,85.65
2018-02-20T08:40:39.768Z,90.95
2018-02-20T08:41:42.577Z,82.60
2018-02-20T08:42:45.073Z,85.93
2018-02-20T08:43:47.561Z,79.78
2018-02-20T08:44:50.059Z,86.90
2018-02-20T08:45:52.546Z,81.45
2018-02-20T08:46:55.023Z,81.37
2018-02-20T08:47:57.503Z,90.43
2018-02-20T08:49:00.008Z,81.93
2018-02-20T08:50:03.424Z,88.18
2018-02-20T08:51:06.023Z,86.12
2018-02-20T08:52:08.505Z,84.65
2018-02-20T08:53:11.746Z,96.43
2018-02-20T08:54:15.233Z,89.32
2018-02-20T08:55:17.770Z,87.80
2018-02-20T08:56:20.244Z,81.28
2018-02-20T08:57:23.517Z,81.43
2018-02-20T08:58:26.110Z,88.07
2018-02-20T08:59:29.368Z,88.00
2018-02-20T09:00:32.724Z,91.78
2018-02-20T09:01:35.405Z,91.00
2018-02-20T09:02:37.863Z,84.35
2018-02-20T09:03:41.140Z,84.43
2018-02-20T09:04:43.643Z,89.10
2018-02-20T09:05:46.132Z,90.03
2018-02-20T09:06:48.596Z,82.88
2018-02-20T09:07:51.083Z,90.40
2018-02-20T09:08:53.655Z,89.55
2018-02-20T09:09:57.688Z,90.93
2018-02-20T09:11:00.215Z,85.30
2018-02-20T09:12:03.589Z,84.40
2018-02-20T09:13:06.111Z,85.80
2018-02-20T09:14:08.588Z,87.78
2018-02-20T09:15:11.078Z,86.25
2018-02-20T09:16:13.548Z,90.47
2018-02-20T09:17:16.805Z,91.82
2018-02-20T09:18:20.098Z,91.12
2018-02-20T09:19:22.638Z,90.93
2018-02-20T09:20:25.271Z,90.00
2018-02-20T09:21:28.288Z,87.18
2018-02-20T09:22:30.773Z,84.43
2018-02-20T09:23:35.519Z,85.05
2018-02-20T09:24:38.206Z,89.93
2018-02-20T09:25:40.833Z,88.55
2018-02-20T09:26:43.477Z,78.78
2018-02-20T09:27:46.000Z,83.53
2018-02-20T09:28:48.489Z,92.72
2018-02-20T09:29:50.977Z,93.25
2018-02-20T09:30:53.498Z,84.28
2018-02-20T09:31:56.765Z,86.87
2018-02-20T09:33:00.069Z,94.07
2018-02-20T09:34:02.538Z,91.95
2018-02-20T09:35:05.787Z,92.50
2018-02-20T09:36:09.038Z,89.00
2018-02-20T09:37:11.544Z,88.57
2018-02-20T09:38:14.852Z,86.25
2018-02-20T09:39:18.116Z,85.55
2018-02-20T09:40:20.797Z,82.68
2018-02-20T09:41:23.269Z,96.22
2018-02-20T09:42:27.248Z,86.00
2018-02-20T09:43:30.564Z,88.85
2018-02-20T09:44:33.055Z,88.78
2018-02-20T09:45:35.573Z,89.10
2018-02-20T09:46:38.050Z,89.60
2018-02-20T09:47:40.520Z,81.03
2018-02-20T09:48:43.175Z,86.95
2018-02-20T09:49:45.674Z,85.20
2018-02-20T09:50:48.170Z,91.05
2018-02-20T09:51:51.413Z,86.63
2018-02-20T09:52:54.641Z,88.07
2018-02-20T09:53:57.131Z,85.80
2018-02-20T09:54:59.636Z,87.47
2018-02-20T09:56:02.104Z,91.93
2018-02-20T09:57:04.617Z,90.53
2018-02-20T09:58:07.107Z,86.60
2018-02-20T09:59:09.598Z,89.85
2018-02-20T10:00:12.840Z,80.97
2018-02-20T10:01:15.297Z,86.15
2018-02-20T10:02:18.607Z,83.43
2018-02-20T10:03:21.171Z,84.35
2018-02-20T10:04:23.645Z,80.20
2018-02-20T10:05:27.634Z,80.68
2018-02-20T10:06:30.899Z,96.95
2018-02-20T10:07:33.412Z,86.25
2018-02-20T10:08:35.961Z,85.35
2018-02-20T10:09:38.440Z,85.47
2018-02-20T10:10:40.959Z,82.47
2018-02-20T10:11:43.464Z,88.55
2018-02-20T10:12:45.953Z,89.25
2018-02-20T10:13:48.426Z,82.82
2018-02-20T10:14:50.907Z,81.87
2018-02-20T10:15:53.382Z,75.20
2018-02-20T10:16:55.889Z,88.22
2018-02-20T10:17:58.354Z,71.43
2018-02-20T10:19:01.607Z,75.05
2018-02-20T10:20:04.090Z,85.15
2018-02-20T10:21:06.624Z,84.22
2018-02-20T10:22:09.903Z,76.22
2018-02-20T10:23:12.394Z,80.95
2018-02-20T10:24:14.858Z,78.65
2018-02-20T10:25:17.350Z,79.50
2018-02-20T10:26:19.838Z,76.57
2018-02-20T10:27:22.347Z,73.65
2018-02-20T10:28:24.815Z,77.37
2018-02-20T10:29:27.282Z,74.72
2018-02-20T10:30:29.750Z,68.80
2018-02-20T10:31:32.245Z,68.68
2018-02-20T10:32:34.754Z,74.87
2018-02-20T10:33:37.244Z,73.47
2018-02-20T10:34:39.708Z,82.10
2018-02-20T10:35:42.164Z,75.62
2018-02-20T10:36:44.654Z,78.28
2018-02-20T10:37:47.143Z,76.03
2018-02-20T10:39:57.612Z,71.53
2018-02-20T10:42:04.751Z,80.57
2018-02-20T10:43:07.335Z,68.80
2018-02-20T10:44:09.838Z,75.25
2018-02-20T10:45:12.352Z,67.03
2018-02-20T10:46:14.839Z,72.12
2018-02-20T10:47:18.101Z,73.95
2018-02-20T10:48:20.654Z,70.35
2018-02-20T10:49:23.188Z,73.57
2018-02-20T10:50:25.718Z,66.22
2018-02-20T10:51:28.339Z,62.35
2018-02-20T10:52:30.840Z,63.17
2018-02-20T10:53:33.350Z,63.22
2018-02-20T10:54:36.742Z,62.75
2018-02-20T10:55:39.243Z,62.40
2018-02-20T10:56:41.756Z,65.12
2018-02-20T10:57:44.238Z,63.65
2018-02-20T10:58:47.457Z,60.17
2018-02-20T10:59:49.967Z,63.83
2018-02-20T11:00:52.485Z,68.72
2018-02-20T11:01:55.001Z,64.72
2018-02-20T11:02:57.478Z,70.20
2018-02-20T11:03:59.981Z,69.45
2018-02-20T11:05:03.057Z,70.20
2018-02-20T11:06:05.557Z,62.60
2018-02-20T11:07:08.067Z,60.28
2018-02-20T11:08:10.602Z,61.63
2018-02-20T11:09:13.160Z,63.90
2018-02-20T11:10:16.455Z,60.50
2018-02-20T11:11:18.969Z,63.40
2018-02-20T11:12:21.475Z,63.70
2018-02-20T11:13:24.798Z,65.18
2018-02-20T11:14:27.387Z,68.70
2018-02-20T11:15:29.924Z,66.10
2018-02-20T11:16:32.498Z,68.22
2018-02-20T11:17:35.843Z,59.30
2018-02-20T11:18:39.136Z,67.18
2018-02-20T11:19:41.904Z,60.70
2018-02-20T11:20:45.220Z,65.60
2018-02-20T11:21:47.743Z,65.80
2018-02-20T11:22:50.251Z,59.88
2018-02-20T11:23:52.773Z,64.93
2018-02-20T11:24:55.320Z,58.42
2018-02-20T11:25:57.812Z,67.68
2018-02-20T11:27:00.367Z,59.00
2018-02-20T11:28:02.929Z,56.58
2018-02-20T11:29:06.354Z,65.90
2018-02-20T11:30:08.863Z,71.10
2018-02-20T11:31:11.469Z,58.03
2018-02-20T11:32:14.097Z,65.32
2018-02-20T11:33:16.725Z,60.12
2018-02-20T11:34:20.176Z,57.05
2018-02-20T11:35:22.673Z,56.22
2018-02-20T11:36:25.220Z,59.95
2018-02-20T11:37:27.963Z,64.53
2018-02-20T11:38:30.502Z,61.37
2018-02-20T11:39:33.698Z,61.05
2018-02-20T11:40:36.953Z,57.40
2018-02-20T11:41:39.490Z,64.53
2018-02-20T11:42:42.076Z,67.70
2018-02-20T11:43:45.444Z,61.03
2018-02-20T11:44:47.950Z,60.97
2018-02-20T11:45:50.577Z,62.62
2018-02-20T11:46:53.236Z,65.62
2018-02-20T11:47:55.870Z,62.85
2018-02-20T11:48:59.266Z,63.72
2018-02-20T11:50:02.628Z,64.53
2018-02-20T11:51:05.123Z,59.13
2018-02-20T11:52:07.642Z,57.67
2018-02-20T11:53:10.145Z,65.32
2018-02-20T11:54:12.721Z,64.95
2018-02-20T11:55:15.261Z,58.95
2018-02-20T11:56:18.551Z,58.33
2018-02-20T11:57:21.080Z,62.92
2018-02-20T11:58:23.605Z,57.90
2018-02-20T11:59:26.143Z,59.05
2018-02-20T12:00:28.626Z,62.80
2018-02-20T12:01:31.134Z,53.42
2018-02-20T12:02:34.434Z,55.70
2018-02-20T12:03:36.926Z,54.00
2018-02-20T12:04:39.447Z,65.85
2018-02-20T12:05:41.942Z,59.13
2018-02-20T12:06:44.648Z,56.65
2018-02-20T12:07:47.930Z,61.33
2018-02-20T12:08:51.215Z,57.47
2018-02-20T12:09:53.747Z,56.58
2018-02-20T12:10:56.266Z,61.63
2018-02-20T12:11:58.843Z,56.28
2018-02-20T12:13:02.132Z,55.63
2018-02-20T12:14:04.789Z,56.55
2018-02-20T12:15:07.219Z,60.80
2018-02-20T12:16:09.738Z,59.85
2018-02-20T12:17:12.273Z,54.50
2018-02-20T12:18:15.402Z,50.78
2018-02-20T12:19:17.962Z,55.78
2018-02-20T12:20:21.271Z,58.38
2018-02-20T12:21:23.798Z,55.75
2018-02-20T12:22:26.474Z,54.60
2018-02-20T12:23:29.797Z,56.22
2018-02-20T12:24:33.089Z,53.05
2018-02-20T12:25:35.582Z,48.95
2018-02-20T12:26:38.887Z,50.20
2018-02-20T12:27:41.421Z,53.22
2018-02-20T12:28:43.920Z,51.05
2018-02-20T12:29:46.424Z,51.42
2018-02-20T12:30:48.928Z,50.83
2018-02-20T12:31:52.213Z,53.53
2018-02-20T12:32:54.851Z,49.22
2018-02-20T12:33:57.357Z,53.95
2018-02-20T12:34:59.847Z,49.22
2018-02-20T12:36:03.193Z,45.92
2018-02-20T12:37:05.748Z,51.70
2018-02-20T12:38:08.269Z,47.05
2018-02-20T12:39:10.761Z,47.78
2018-02-20T12:40:14.071Z,44.40
2018-02-20T12:41:16.587Z,52.65
2018-02-20T12:42:19.215Z,48.13
2018-02-20T12:43:22.541Z,45.33
2018-02-20T12:44:25.082Z,51.17
2018-02-20T12:45:27.612Z,50.38
2018-02-20T12:46:30.134Z,51.22
2018-02-20T12:47:32.650Z,44.08
2018-02-20T12:48:35.166Z,45.33
2018-02-20T12:49:37.704Z,40.00
2018-02-20T12:50:40.271Z,46.40
2018-02-20T12:51:42.893Z,43.65
2018-02-20T12:52:45.385Z,50.35
2018-02-20T12:53:47.888Z,48.87
2018-02-20T12:54:50.408Z,47.85
2018-02-20T12:55:52.957Z,49.30
2018-02-20T12:56:55.814Z,41.55
2018-02-20T12:57:58.354Z,43.45
2018-02-20T12:59:00.847Z,44.28
2018-02-20T13:00:03.371Z,42.15
2018-02-20T13:01:05.889Z,41.15
2018-02-20T13:02:08.416Z,43.00
2018-02-20T13:03:11.112Z,45.65
2018-02-20T13:04:14.395Z,44.25
2018-02-20T13:05:17.035Z,42.78
2018-02-20T13:06:19.727Z,40.17
2018-02-20T13:07:23.082Z,43.40
2018-02-20T13:08:25.657Z,36.65
2018-02-20T13:09:28.193Z,38.67
2018-02-20T13:10:30.723Z,43.92
2018-02-20T13:11:34.183Z,41.10
2018-02-20T13:12:38.095Z,40.35
2018-02-20T13:13:41.444Z,42.17
2018-02-20T13:14:43.963Z,43.35
2018-02-20T13:15:46.677Z,41.25
2018-02-20T13:16:49.212Z,44.55
2018-02-20T13:17:51.802Z,43.15
2018-02-20T13:18:55.468Z,41.35
2018-02-20T13:19:58.949Z,41.58
2018-02-20T13:21:01.507Z,45.83
2018-02-20T13:22:04.049Z,42.60
2018-02-20T13:23:07.316Z,39.30
2018-02-20T13:24:09.856Z,41.40
2018-02-20T13:25:12.363Z,44.45
2018-02-20T13:26:14.890Z,45.15
2018-02-20T13:27:17.459Z,40.85
2018-02-20T13:28:20.046Z,43.42
2018-02-20T13:29:22.630Z,41.67